createdAt,value
2016-03-15T00:00:30.373Z,22.88
2016-03-15T00:01:30.375Z,22.85
2016-03-15T00:02:30.378Z,22.94
2016-03-15T00:03:30.396Z,22.97
2016-03-15T00:04:30.400Z,22.9
2016-03-15T00:05:30.402Z,22.83
2016-03-15T00:06:30.405Z,22.86
2016-03-15T00:07:30.412Z,22.9
2016-03-15T00:08:30.430Z,22.91
2016-03-15T00:09:30.418Z,22.86
2016-03-15T00:10:30.435Z,22.9
2016-03-15T00:11:30.439Z,22.9
2016-03-15T00:12:30.457Z,22.85
2016-03-15T00:13:30.460Z,22.88
2016-03-15T00:14:30.462Z,22.83
2016-03-15T00:15:39.481Z,22.85
2016-03-15T00:16:30.484Z,22.8
2016-03-15T00:17:30.471Z,22.79
2016-03-15T00:18:30.489Z,22.85
2016-03-15T00:19:30.492Z,22.91
2016-03-15T00:20:30.494Z,22.79
2016-03-15T00:21:30.497Z,22.82
2016-03-15T00:22:30.500Z,22.86
2016-03-15T00:23:30.517Z,22.88
2016-03-15T00:24:30.521Z,22.83
2016-03-15T00:25:30.523Z,22.88
2016-03-15T00:26:30.525Z,22.83
2016-03-15T00:27:30.559Z,22.88
2016-03-15T00:28:30.547Z,22.83
2016-03-15T00:29:30.550Z,22.86
2016-03-15T00:30:30.584Z,22.83
2016-03-15T00:31:30.570Z,22.83
2016-03-15T00:32:30.589Z,22.79
2016-03-15T00:33:30.592Z,22.86
2016-03-15T00:34:30.578Z,22.91
2016-03-15T00:35:30.598Z,22.79
2016-03-15T00:36:30.601Z,22.86
2016-03-15T00:37:30.619Z,22.82
2016-03-15T00:38:30.606Z,22.85
2016-03-15T00:39:30.624Z,22.82
2016-03-15T00:40:30.611Z,22.86
2016-03-15T00:41:30.630Z,22.83
2016-03-15T00:42:30.679Z,22.83
2016-03-15T00:43:30.651Z,22.91
2016-03-15T00:44:30.653Z,22.86
2016-03-15T00:45:39.687Z,22.86
2016-03-15T00:46:30.658Z,22.85
2016-03-15T00:47:30.661Z,22.91
2016-03-15T00:48:30.694Z,22.79
2016-03-15T00:49:30.683Z,22.82
2016-03-15T00:50:30.701Z,22.79
2016-03-15T00:51:30.688Z,22.8
2016-03-15T00:52:30.706Z,22.8
2016-03-15T00:53:30.708Z,22.82
2016-03-15T00:54:30.711Z,22.82
2016-03-15T00:55:30.730Z,22.77
2016-03-15T00:56:30.722Z,22.79
2016-03-15T00:57:30.740Z,22.8
2016-03-15T00:58:30.743Z,22.77
2016-03-15T00:59:30.745Z,22.75
2016-03-15T01:00:30.748Z,22.79
2016-03-15T01:01:30.750Z,22.8
2016-03-15T01:02:30.785Z,22.86
2016-03-15T01:03:30.772Z,22.8
2016-03-15T01:04:30.775Z,22.76
2016-03-15T01:05:30.792Z,22.7
2016-03-15T01:06:30.795Z,22.77
2016-03-15T01:07:30.814Z,22.76
2016-03-15T01:08:30.801Z,22.77
2016-03-15T01:09:30.803Z,22.77
2016-03-15T01:10:30.806Z,22.8
2016-03-15T01:11:30.825Z,22.75
2016-03-15T01:12:30.811Z,22.8
2016-03-15T01:13:30.861Z,22.75
2016-03-15T01:14:30.864Z,22.79
2016-03-15T01:15:30.835Z,22.77
2016-03-15T01:16:30.854Z,22.79
2016-03-15T01:17:30.857Z,22.82
2016-03-15T01:18:30.859Z,22.76
2016-03-15T01:19:30.877Z,22.76
2016-03-15T01:20:30.880Z,22.68
2016-03-15T01:21:30.914Z,22.75
2016-03-15T01:22:30.885Z,22.68
2016-03-15T01:23:30.904Z,22.76
2016-03-15T01:24:30.907Z,22.8
2016-03-15T01:25:30.909Z,22.73
2016-03-15T01:26:30.912Z,22.76
2016-03-15T01:27:30.930Z,22.67
2016-03-15T01:28:30.948Z,22.73
2016-03-15T01:29:30.935Z,22.76
2016-03-15T01:30:30.954Z,22.83
2016-03-15T01:31:30.940Z,22.83
2016-03-15T01:32:30.975Z,22.82
2016-03-15T01:33:30.962Z,22.73
2016-03-15T01:34:30.964Z,22.75
2016-03-15T01:35:30.968Z,22.88
2016-03-15T01:36:30.986Z,22.8
2016-03-15T01:37:30.972Z,22.83
2016-03-15T01:38:30.992Z,22.8
2016-03-15T01:39:31.041Z,22.7
2016-03-15T01:40:30.996Z,22.83
2016-03-15T01:41:31.015Z,22.76
2016-03-15T01:42:31.017Z,22.77
2016-03-15T01:43:31.005Z,22.77
2016-03-15T01:44:31.054Z,22.65
2016-03-15T01:45:31.041Z,22.65
2016-03-15T01:46:31.059Z,22.72
2016-03-15T01:47:31.047Z,22.72
2016-03-15T01:48:31.080Z,22.73
2016-03-15T01:49:31.051Z,22.73
2016-03-15T01:50:31.071Z,22.77
2016-03-15T01:51:31.073Z,22.75
2016-03-15T01:52:31.076Z,22.82
2016-03-15T01:53:31.094Z,22.7
2016-03-15T01:54:31.096Z,22.8
2016-03-15T01:55:31.099Z,22.79
2016-03-15T01:56:31.102Z,22.77
2016-03-15T01:57:31.120Z,22.85
2016-03-15T01:58:31.107Z,22.82
2016-03-15T01:59:31.126Z,22.9
2016-03-15T02:00:31.144Z,22.83
2016-03-15T02:01:31.131Z,22.88
2016-03-15T02:02:31.164Z,22.85
2016-03-15T02:03:31.152Z,22.83
2016-03-15T02:04:31.170Z,22.85
2016-03-15T02:05:31.157Z,22.82
2016-03-15T02:06:31.175Z,22.75
2016-03-15T02:07:31.178Z,22.67
2016-03-15T02:08:31.040Z,22.82
2016-03-15T02:09:31.184Z,22.82
2016-03-15T02:10:31.186Z,22.82
2016-03-15T02:11:31.205Z,22.9
2016-03-15T02:12:31.208Z,22.8
2016-03-15T02:13:31.225Z,22.83
2016-03-15T02:14:31.213Z,22.83
2016-03-15T02:15:31.231Z,22.83
2016-03-15T02:16:31.233Z,22.79
2016-03-15T02:17:31.252Z,22.8
2016-03-15T02:18:31.239Z,22.82
2016-03-15T02:19:31.258Z,22.83
2016-03-15T02:20:31.261Z,22.82
2016-03-15T02:21:31.279Z,22.83
2016-03-15T02:22:31.266Z,22.83
2016-03-15T02:23:31.284Z,22.83
2016-03-15T02:24:31.302Z,22.77
2016-03-15T02:25:31.305Z,22.67
2016-03-15T02:26:31.292Z,22.77
2016-03-15T02:27:31.310Z,22.75
2016-03-15T02:28:31.312Z,22.82
2016-03-15T02:29:31.315Z,22.73
2016-03-15T02:30:31.318Z,22.76
2016-03-15T02:31:31.320Z,22.83
2016-03-15T02:32:31.339Z,22.77
2016-03-15T02:33:31.342Z,22.72
2016-03-15T02:34:31.345Z,22.79
2016-03-15T02:35:31.348Z,22.8
2016-03-15T02:36:31.366Z,22.77
2016-03-15T02:37:31.368Z,22.83
2016-03-15T02:38:31.371Z,22.76
2016-03-15T02:39:31.373Z,22.72
2016-03-15T02:40:31.376Z,22.82
2016-03-15T02:41:31.394Z,22.76
2016-03-15T02:42:31.413Z,22.91
2016-03-15T02:43:31.416Z,22.82
2016-03-15T02:44:31.418Z,22.79
2016-03-15T02:45:31.422Z,22.83
2016-03-15T02:46:31.424Z,22.77
2016-03-15T02:47:31.427Z,22.79
2016-03-15T02:48:31.430Z,22.82
2016-03-15T02:49:31.447Z,22.83
2016-03-15T02:50:31.450Z,22.72
2016-03-15T02:51:31.468Z,22.8
2016-03-15T02:52:31.455Z,22.82
2016-03-15T02:53:31.458Z,22.77
2016-03-15T02:54:31.493Z,22.77
2016-03-15T02:55:31.480Z,22.73
2016-03-15T02:56:31.498Z,22.79
2016-03-15T02:57:31.485Z,22.83
2016-03-15T02:58:31.518Z,22.68
2016-03-15T02:59:31.506Z,22.88
2016-03-15T03:00:31.524Z,22.83
2016-03-15T03:01:31.511Z,22.79
2016-03-15T03:02:31.529Z,22.83
2016-03-15T03:03:31.531Z,22.82
2016-03-15T03:04:31.550Z,22.72
2016-03-15T03:05:31.537Z,22.82
2016-03-15T03:06:31.556Z,22.77
2016-03-15T03:07:31.542Z,22.82
2016-03-15T03:08:31.562Z,22.82
2016-03-15T03:09:31.579Z,22.8
2016-03-15T03:10:31.567Z,22.83
2016-03-15T03:11:31.584Z,22.77
2016-03-15T03:12:31.587Z,22.8
2016-03-15T03:13:31.590Z,22.82
2016-03-15T03:14:31.592Z,22.92
2016-03-15T03:15:31.611Z,22.85
2016-03-15T03:16:31.613Z,22.91
2016-03-15T03:17:31.616Z,22.86
2016-03-15T03:18:31.619Z,22.88
2016-03-15T03:19:31.621Z,22.86
2016-03-15T03:20:31.688Z,22.86
2016-03-15T03:21:31.659Z,22.8
2016-03-15T03:22:31.677Z,22.8
2016-03-15T03:23:31.649Z,22.76
2016-03-15T03:24:31.667Z,22.8
2016-03-15T03:25:31.669Z,22.83
2016-03-15T03:26:31.672Z,22.76
2016-03-15T03:27:31.674Z,22.82
2016-03-15T03:28:31.693Z,22.83
2016-03-15T03:29:31.696Z,22.72
2016-03-15T03:30:31.699Z,22.91
2016-03-15T03:31:31.701Z,22.83
2016-03-15T03:32:31.703Z,22.79
2016-03-15T03:33:31.738Z,22.76
2016-03-15T03:34:31.709Z,22.83
2016-03-15T03:35:31.571Z,22.83
2016-03-15T03:36:31.746Z,22.91
2016-03-15T03:37:31.764Z,22.91
2016-03-15T03:38:31.751Z,22.88
2016-03-15T03:39:31.754Z,22.88
2016-03-15T03:40:31.756Z,22.76
2016-03-15T03:41:31.775Z,22.83
2016-03-15T03:42:31.761Z,22.8
2016-03-15T03:43:31.795Z,22.83
2016-03-15T03:44:31.783Z,22.8
2016-03-15T03:45:31.786Z,22.8
2016-03-15T03:46:31.803Z,22.85
2016-03-15T03:47:31.791Z,22.83
2016-03-15T03:48:31.809Z,22.83
2016-03-15T03:49:31.811Z,22.82
2016-03-15T03:50:31.830Z,22.86
2016-03-15T03:51:31.849Z,22.83
2016-03-15T03:52:31.867Z,22.83
2016-03-15T03:53:31.838Z,22.83
2016-03-15T03:54:31.857Z,22.79
2016-03-15T03:55:31.859Z,22.79
2016-03-15T03:56:31.863Z,22.72
2016-03-15T03:57:31.865Z,22.77
2016-03-15T03:58:31.882Z,22.73
2016-03-15T03:59:31.886Z,22.73
2016-03-15T04:00:31.920Z,22.76
2016-03-15T04:01:31.891Z,22.75
2016-03-15T04:02:31.894Z,22.68
2016-03-15T04:03:31.912Z,22.73
2016-03-15T04:04:31.946Z,22.67
2016-03-15T04:05:31.917Z,22.8
2016-03-15T04:06:31.936Z,22.8
2016-03-15T04:07:31.938Z,22.8
2016-03-15T04:08:31.942Z,22.76
2016-03-15T04:09:31.944Z,22.76
2016-03-15T04:10:31.947Z,22.77
2016-03-15T04:11:31.950Z,22.82
2016-03-15T04:12:31.952Z,22.76
2016-03-15T04:13:31.970Z,22.73
2016-03-15T04:14:31.973Z,22.8
2016-03-15T04:15:31.975Z,22.79
2016-03-15T04:16:31.994Z,22.73
2016-03-15T04:17:31.997Z,22.75
2016-03-15T04:18:31.999Z,22.82
2016-03-15T04:19:32.003Z,22.82
2016-03-15T04:20:32.005Z,22.8
2016-03-15T04:21:32.012Z,22.72
2016-03-15T04:22:32.015Z,22.83
2016-03-15T04:23:32.018Z,22.67
2016-03-15T04:24:32.068Z,22.8
2016-03-15T04:25:32.038Z,22.76
2016-03-15T04:26:32.057Z,22.82
2016-03-15T04:27:32.043Z,22.8
2016-03-15T04:28:32.063Z,22.79
2016-03-15T04:29:32.065Z,22.72
2016-03-15T04:30:32.083Z,22.68
2016-03-15T04:31:32.102Z,22.68
2016-03-15T04:32:32.073Z,22.8
2016-03-15T04:33:32.092Z,22.73
2016-03-15T04:34:32.110Z,22.77
2016-03-15T04:35:32.116Z,22.86
2016-03-15T04:36:32.102Z,22.79
2016-03-15T04:37:32.106Z,22.82
2016-03-15T04:38:32.108Z,22.82
2016-03-15T04:39:32.127Z,22.76
2016-03-15T04:40:32.146Z,22.8
2016-03-15T04:41:32.132Z,22.77
2016-03-15T04:42:32.151Z,22.7
2016-03-15T04:43:32.138Z,22.77
2016-03-15T04:44:32.171Z,22.77
2016-03-15T04:45:32.159Z,22.73
2016-03-15T04:46:32.177Z,22.7
2016-03-15T04:47:32.164Z,22.76
2016-03-15T04:48:32.183Z,22.77
2016-03-15T04:49:32.185Z,22.83
2016-03-15T04:50:32.203Z,22.86
2016-03-15T04:51:32.191Z,22.82
2016-03-15T04:52:32.209Z,22.79
2016-03-15T04:53:32.227Z,22.8
2016-03-15T04:54:32.214Z,22.77
2016-03-15T04:55:32.217Z,22.79
2016-03-15T04:56:32.235Z,22.79
2016-03-15T04:57:32.239Z,22.79
2016-03-15T04:58:32.256Z,22.79
2016-03-15T04:59:32.258Z,22.67
2016-03-15T05:00:32.247Z,22.7
2016-03-15T05:01:32.264Z,22.64
2016-03-15T05:02:32.266Z,22.79
2016-03-15T05:03:32.270Z,22.75
2016-03-15T05:04:32.272Z,22.76
2016-03-15T05:05:32.291Z,22.79
2016-03-15T05:06:32.278Z,22.77
2016-03-15T05:07:32.296Z,22.76
2016-03-15T05:08:32.314Z,22.75
2016-03-15T05:09:32.302Z,22.8
2016-03-15T05:10:32.304Z,22.8
2016-03-15T05:11:32.322Z,22.77
2016-03-15T05:12:32.341Z,22.62
2016-03-15T05:13:32.327Z,22.82
2016-03-15T05:14:32.346Z,22.75
2016-03-15T05:15:32.365Z,22.7
2016-03-15T05:16:32.367Z,22.77
2016-03-15T05:17:32.370Z,22.77
2016-03-15T05:18:32.357Z,22.8
2016-03-15T05:19:32.375Z,22.77
2016-03-15T05:20:32.378Z,22.79
2016-03-15T05:21:32.365Z,22.83
2016-03-15T05:22:32.398Z,22.79
2016-03-15T05:23:32.387Z,22.82
2016-03-15T05:24:32.404Z,22.82
2016-03-15T05:25:32.406Z,22.77
2016-03-15T05:26:32.410Z,22.79
2016-03-15T05:27:32.412Z,22.77
2016-03-15T05:28:32.431Z,22.79
2016-03-15T05:29:32.464Z,22.77
2016-03-15T05:30:32.436Z,22.79
2016-03-15T05:31:32.455Z,22.77
2016-03-15T05:32:32.442Z,22.82
2016-03-15T05:33:32.475Z,22.82
2016-03-15T05:34:32.463Z,22.77
2016-03-15T05:35:32.481Z,22.68
2016-03-15T05:36:32.483Z,22.76
2016-03-15T05:37:32.502Z,22.7
2016-03-15T05:38:32.473Z,22.73
2016-03-15T05:39:32.491Z,22.7
2016-03-15T05:40:32.494Z,22.7
2016-03-15T05:41:32.513Z,22.77
2016-03-15T05:42:32.515Z,22.79
2016-03-15T05:43:32.518Z,22.73
2016-03-15T05:44:32.521Z,22.7
2016-03-15T05:45:32.554Z,22.82
2016-03-15T05:46:32.541Z,22.8
2016-03-15T05:47:32.528Z,22.91
2016-03-15T05:48:32.547Z,22.86
2016-03-15T05:49:32.549Z,22.83
2016-03-15T05:50:32.537Z,22.88
2016-03-15T05:51:32.555Z,22.83
2016-03-15T05:52:32.557Z,22.75
2016-03-15T05:53:32.560Z,22.82
2016-03-15T05:54:32.579Z,22.77
2016-03-15T05:55:32.597Z,22.83
2016-03-15T05:56:32.600Z,22.79
2016-03-15T05:57:32.603Z,22.79
2016-03-15T05:58:32.605Z,22.82
2016-03-15T05:59:32.608Z,22.8
2016-03-15T06:00:32.626Z,22.82
2016-03-15T06:01:32.628Z,22.86
2016-03-15T06:02:32.475Z,22.97
2016-03-15T06:03:32.634Z,22.86
2016-03-15T06:04:32.652Z,22.88
2016-03-15T06:05:32.655Z,22.8
2016-03-15T06:06:32.668Z,22.83
2016-03-15T06:07:32.639Z,22.8
2016-03-15T06:08:32.627Z,22.82
2016-03-15T06:09:32.630Z,22.9
2016-03-15T06:10:32.617Z,22.8
2016-03-15T06:11:32.624Z,22.79
2016-03-15T06:12:32.606Z,22.85
2016-03-15T06:13:32.649Z,22.92
2016-03-15T06:14:32.631Z,22.91
2016-03-15T06:15:32.612Z,22.95
2016-03-15T06:16:32.612Z,22.9
2016-03-15T06:17:32.612Z,22.88
2016-03-15T06:18:32.612Z,22.92
2016-03-15T06:19:32.628Z,22.77
2016-03-15T06:20:32.629Z,22.8
2016-03-15T06:21:32.630Z,22.86
2016-03-15T06:22:32.631Z,22.83
2016-03-15T06:23:32.649Z,22.79
2016-03-15T06:24:32.650Z,22.8
2016-03-15T06:25:32.652Z,22.91
2016-03-15T06:26:32.671Z,22.85
2016-03-15T06:27:32.673Z,22.8
2016-03-15T06:28:32.692Z,22.88
2016-03-15T06:29:32.679Z,22.83
2016-03-15T06:30:32.697Z,22.82
2016-03-15T06:31:32.700Z,22.83
2016-03-15T06:32:32.703Z,22.82
2016-03-15T06:33:32.705Z,22.8
2016-03-15T06:34:32.709Z,22.8
2016-03-15T06:35:32.711Z,22.86
2016-03-15T06:36:32.729Z,22.9
2016-03-15T06:37:32.731Z,22.86
2016-03-15T06:38:32.750Z,22.83
2016-03-15T06:39:32.736Z,22.75
2016-03-15T06:40:32.739Z,22.91
2016-03-15T06:41:32.774Z,22.76
2016-03-15T06:42:32.760Z,22.8
2016-03-15T06:43:32.619Z,22.8
2016-03-15T06:44:32.766Z,22.83
2016-03-15T06:45:32.800Z,22.86
2016-03-15T06:46:32.787Z,22.86
2016-03-15T06:47:32.805Z,22.83
2016-03-15T06:48:32.808Z,22.85
2016-03-15T06:49:32.810Z,22.88
2016-03-15T06:50:32.813Z,22.97
2016-03-15T06:51:32.815Z,22.88
2016-03-15T06:52:32.834Z,22.94
2016-03-15T06:53:32.884Z,22.94
2016-03-15T06:54:32.840Z,22.9
2016-03-15T06:55:32.857Z,22.91
2016-03-15T06:56:32.845Z,22.95
2016-03-15T06:57:32.863Z,22.91
2016-03-15T06:58:32.850Z,22.79
2016-03-15T06:59:32.868Z,22.92
2016-03-15T07:00:32.871Z,22.91
2016-03-15T07:01:32.890Z,22.94
2016-03-15T07:02:32.877Z,22.94
2016-03-15T07:03:32.911Z,22.8
2016-03-15T07:04:32.914Z,22.79
2016-03-15T07:05:32.901Z,22.88
2016-03-15T07:06:32.966Z,22.83
2016-03-15T07:07:32.907Z,22.83
2016-03-15T07:08:32.941Z,22.86
2016-03-15T07:09:32.929Z,22.83
2016-03-15T07:10:32.946Z,22.9
2016-03-15T07:11:32.949Z,22.94
2016-03-15T07:12:32.952Z,22.9
2016-03-15T07:13:32.970Z,22.83
2016-03-15T07:14:32.957Z,22.86
2016-03-15T07:15:32.976Z,22.88
2016-03-15T07:16:32.979Z,22.85
2016-03-15T07:17:32.996Z,22.86
2016-03-15T07:18:32.984Z,22.91
2016-03-15T07:19:33.002Z,22.94
2016-03-15T07:20:33.004Z,22.91
2016-03-15T07:21:33.007Z,22.97
2016-03-15T07:22:33.025Z,23.04
2016-03-15T07:23:33.012Z,23.22
2016-03-15T07:24:33.031Z,23.28
2016-03-15T07:25:33.034Z,23.35
2016-03-15T07:26:33.036Z,23.43
2016-03-15T07:27:33.039Z,23.46
2016-03-15T07:28:33.058Z,23.68
2016-03-15T07:29:33.060Z,23.79
2016-03-15T07:30:33.047Z,23.87
2016-03-15T07:31:33.081Z,23.79
2016-03-15T07:32:33.083Z,23.9
2016-03-15T07:33:33.086Z,24.06
2016-03-15T07:34:33.105Z,24.1
2016-03-15T07:35:33.107Z,24.22
2016-03-15T07:36:33.127Z,24.34
2016-03-15T07:37:33.129Z,24.34
2016-03-15T07:38:33.131Z,24.43
2016-03-15T07:39:33.135Z,24.49
2016-03-15T07:40:33.137Z,24.55
2016-03-15T07:41:33.139Z,24.58
2016-03-15T07:42:33.157Z,24.58
2016-03-15T07:43:33.160Z,24.64
2016-03-15T07:44:33.178Z,24.6
2016-03-15T07:45:33.166Z,24.6
2016-03-15T07:46:33.184Z,24.64
2016-03-15T07:47:33.186Z,24.67
2016-03-15T07:48:33.205Z,24.67
2016-03-15T07:49:33.192Z,24.69
2016-03-15T07:50:33.210Z,24.68
2016-03-15T07:51:33.212Z,24.68
2016-03-15T07:52:33.215Z,24.64
2016-03-15T07:53:33.218Z,24.57
2016-03-15T07:54:33.112Z,24.64
2016-03-15T07:55:33.239Z,24.64
2016-03-15T07:56:33.242Z,24.57
2016-03-15T07:57:33.260Z,24.68
2016-03-15T07:58:33.263Z,24.67
2016-03-15T07:59:33.266Z,24.71
2016-03-15T08:00:33.283Z,24.78
2016-03-15T08:01:33.287Z,24.71
2016-03-15T08:02:33.289Z,24.8
2016-03-15T08:03:33.292Z,24.84
2016-03-15T08:04:33.294Z,24.73
2016-03-15T08:05:33.313Z,24.76
2016-03-15T08:06:33.316Z,24.83
2016-03-15T08:07:33.318Z,24.95
2016-03-15T08:08:33.337Z,24.91
2016-03-15T08:09:33.339Z,24.87
2016-03-15T08:10:33.358Z,24.9
2016-03-15T08:11:33.360Z,24.93
2016-03-15T08:12:33.394Z,24.87
2016-03-15T08:13:33.366Z,24.91
2016-03-15T08:14:33.368Z,24.98
2016-03-15T08:15:33.387Z,24.98
2016-03-15T08:16:33.390Z,25.05
2016-03-15T08:17:33.407Z,24.98
2016-03-15T08:18:33.395Z,24.99
2016-03-15T08:19:33.413Z,24.95
2016-03-15T08:20:33.415Z,24.9
2016-03-15T08:21:33.435Z,24.91
2016-03-15T08:22:33.437Z,24.8
2016-03-15T08:23:33.440Z,24.73
2016-03-15T08:24:33.443Z,24.73
2016-03-15T08:25:33.461Z,24.77
2016-03-15T08:26:33.463Z,24.8
2016-03-15T08:27:33.481Z,24.8
2016-03-15T08:28:33.484Z,24.77
2016-03-15T08:29:33.502Z,24.77
2016-03-15T08:30:33.490Z,24.77
2016-03-15T08:31:33.508Z,24.91
2016-03-15T08:32:33.510Z,25.08
2016-03-15T08:33:33.514Z,25.57
2016-03-15T08:34:33.532Z,25.88
2016-03-15T08:35:33.549Z,25.72
2016-03-15T08:36:33.553Z,25.7
2016-03-15T08:37:33.555Z,25.51
2016-03-15T08:38:33.558Z,25.32
2016-03-15T08:39:33.561Z,25.14
2016-03-15T08:40:33.579Z,25.13
2016-03-15T08:41:33.582Z,24.98
2016-03-15T08:42:33.585Z,24.91
2016-03-15T08:43:33.602Z,24.81
2016-03-15T08:44:33.621Z,24.78
2016-03-15T08:45:33.608Z,24.88
2016-03-15T08:46:33.626Z,24.96
2016-03-15T08:47:33.629Z,24.84
2016-03-15T08:48:33.648Z,24.93
2016-03-15T08:49:33.651Z,24.83
2016-03-15T08:50:33.654Z,24.73
2016-03-15T08:51:33.671Z,24.65
2016-03-15T08:52:33.689Z,24.65
2016-03-15T08:53:33.520Z,24.69
2016-03-15T08:54:33.679Z,24.73
2016-03-15T08:55:33.697Z,24.77
2016-03-15T08:56:33.701Z,24.8
2016-03-15T08:57:33.719Z,24.73
2016-03-15T08:58:33.721Z,24.68
2016-03-15T08:59:33.724Z,24.83
2016-03-15T09:00:33.727Z,24.77
2016-03-15T09:01:33.730Z,24.77
2016-03-15T09:02:33.747Z,24.67
2016-03-15T09:03:33.750Z,24.68
2016-03-15T09:04:33.753Z,24.73
2016-03-15T09:05:33.772Z,24.64
2016-03-15T09:06:33.774Z,24.68
2016-03-15T09:07:33.792Z,24.64
2016-03-15T09:08:33.795Z,24.73
2016-03-15T09:09:33.797Z,24.73
2016-03-15T09:10:33.799Z,24.64
2016-03-15T09:11:33.803Z,24.65
2016-03-15T09:12:33.821Z,24.61
2016-03-15T09:13:33.824Z,24.53
2016-03-15T09:14:33.843Z,24.73
2016-03-15T09:15:33.845Z,24.77
2016-03-15T09:16:33.848Z,24.76
2016-03-15T09:17:33.851Z,24.69
2016-03-15T09:18:33.868Z,24.65
2016-03-15T09:19:33.871Z,24.67
2016-03-15T09:20:33.874Z,24.68
2016-03-15T09:21:33.892Z,24.71
2016-03-15T09:22:33.880Z,24.8
2016-03-15T09:23:33.898Z,24.78
2016-03-15T09:24:33.900Z,24.76
2016-03-15T09:25:33.904Z,24.88
2016-03-15T09:26:33.922Z,24.85
2016-03-15T09:27:33.924Z,24.83
2016-03-15T09:28:33.942Z,24.85
2016-03-15T09:29:33.945Z,25
2016-03-15T09:30:33.947Z,24.95
2016-03-15T09:31:33.826Z,24.85
2016-03-15T09:32:33.969Z,24.8
2016-03-15T09:33:33.986Z,24.8
2016-03-15T09:34:33.975Z,24.71
2016-03-15T09:35:33.992Z,24.64
2016-03-15T09:36:33.994Z,24.67
2016-03-15T09:37:33.998Z,24.55
2016-03-15T09:38:34.000Z,24.69
2016-03-15T09:39:34.019Z,24.8
2016-03-15T09:40:34.022Z,24.68
2016-03-15T09:41:34.024Z,24.71
2016-03-15T09:42:34.043Z,24.69
2016-03-15T09:43:34.030Z,24.77
2016-03-15T09:44:34.048Z,24.81
2016-03-15T09:45:34.051Z,24.87
2016-03-15T09:46:34.068Z,24.83
2016-03-15T09:47:34.072Z,24.83
2016-03-15T09:48:34.090Z,24.69
2016-03-15T09:49:34.092Z,24.71
2016-03-15T09:50:34.096Z,24.78
2016-03-15T09:51:34.098Z,24.83
2016-03-15T09:52:34.116Z,24.71
2016-03-15T09:53:34.120Z,24.84
2016-03-15T09:54:34.122Z,24.84
2016-03-15T09:55:34.140Z,24.9
2016-03-15T09:56:34.143Z,24.9
2016-03-15T09:57:34.161Z,24.93
2016-03-15T09:58:34.164Z,24.9
2016-03-15T09:59:34.182Z,24.83
2016-03-15T10:00:34.169Z,24.93
2016-03-15T10:01:34.172Z,24.87
2016-03-15T10:02:34.190Z,24.84
2016-03-15T10:03:34.192Z,24.84
2016-03-15T10:04:34.227Z,24.78
2016-03-15T10:05:34.214Z,24.88
2016-03-15T10:06:34.232Z,24.68
2016-03-15T10:07:34.219Z,24.81
2016-03-15T10:08:34.238Z,24.81
2016-03-15T10:09:34.245Z,24.84
2016-03-15T10:10:34.248Z,24.87
2016-03-15T10:11:34.251Z,24.84
2016-03-15T10:12:34.254Z,24.83
2016-03-15T10:13:34.271Z,24.95
2016-03-15T10:14:34.274Z,24.85
2016-03-15T10:15:34.293Z,24.83
2016-03-15T10:16:34.279Z,24.83
2016-03-15T10:17:34.298Z,24.93
2016-03-15T10:18:34.301Z,24.99
2016-03-15T10:19:34.318Z,24.93
2016-03-15T10:20:34.306Z,24.91
2016-03-15T10:21:34.324Z,24.84
2016-03-15T10:22:34.326Z,24.78
2016-03-15T10:23:34.345Z,24.95
2016-03-15T10:24:34.364Z,24.98
2016-03-15T10:25:34.351Z,24.95
2016-03-15T10:26:34.353Z,24.88
2016-03-15T10:27:34.372Z,24.9
2016-03-15T10:28:34.375Z,24.91
2016-03-15T10:29:34.377Z,24.96
2016-03-15T10:30:34.395Z,24.91
2016-03-15T10:31:34.398Z,24.84
2016-03-15T10:32:34.400Z,24.93
2016-03-15T10:33:34.403Z,24.84
2016-03-15T10:34:34.422Z,24.85
2016-03-15T10:35:34.424Z,24.9
2016-03-15T10:36:34.427Z,24.84
2016-03-15T10:37:34.477Z,24.95
2016-03-15T10:38:34.448Z,24.93
2016-03-15T10:39:34.451Z,24.85
2016-03-15T10:40:34.454Z,24.9
2016-03-15T10:41:34.472Z,24.95
2016-03-15T10:42:34.474Z,24.88
2016-03-15T10:43:34.477Z,24.87
2016-03-15T10:44:34.543Z,24.88
2016-03-15T10:45:34.498Z,24.96
2016-03-15T10:46:34.501Z,24.9
2016-03-15T10:47:34.379Z,24.96
2016-03-15T10:48:34.521Z,24.96
2016-03-15T10:49:34.557Z,24.98
2016-03-15T10:50:34.543Z,24.85
2016-03-15T10:51:34.561Z,24.93
2016-03-15T10:52:34.548Z,25.02
2016-03-15T10:53:34.567Z,24.87
2016-03-15T10:54:34.584Z,24.98
2016-03-15T10:55:34.572Z,24.84
2016-03-15T10:56:34.575Z,24.84
2016-03-15T10:57:34.578Z,24.9
2016-03-15T10:58:34.595Z,24.9
2016-03-15T10:59:34.598Z,24.88
2016-03-15T11:00:34.617Z,24.9
2016-03-15T11:01:34.650Z,24.87
2016-03-15T11:02:34.622Z,24.9
2016-03-15T11:03:34.624Z,24.88
2016-03-15T11:04:34.659Z,24.84
2016-03-15T11:05:34.647Z,24.8
2016-03-15T11:06:34.649Z,24.9
2016-03-15T11:07:34.652Z,24.95
2016-03-15T11:08:34.669Z,24.78
2016-03-15T11:09:34.672Z,24.69
2016-03-15T11:10:34.705Z,24.73
2016-03-15T11:11:34.693Z,24.73
2016-03-15T11:12:34.696Z,24.69
2016-03-15T11:13:34.699Z,24.84
2016-03-15T11:14:34.702Z,24.93
2016-03-15T11:15:34.735Z,24.83
2016-03-15T11:16:34.721Z,24.83
2016-03-15T11:17:34.740Z,24.76
2016-03-15T11:18:34.743Z,24.73
2016-03-15T11:19:34.776Z,24.77
2016-03-15T11:20:34.765Z,24.84
2016-03-15T11:21:34.782Z,24.68
2016-03-15T11:22:34.770Z,24.71
2016-03-15T11:23:34.788Z,24.84
2016-03-15T11:24:34.806Z,24.71
2016-03-15T11:25:34.793Z,24.83
2016-03-15T11:26:34.811Z,24.69
2016-03-15T11:27:34.814Z,24.87
2016-03-15T11:28:34.817Z,24.84
2016-03-15T11:29:34.820Z,24.65
2016-03-15T11:30:34.838Z,24.68
2016-03-15T11:31:34.841Z,24.62
2016-03-15T11:32:34.844Z,24.61
2016-03-15T11:33:34.861Z,24.76
2016-03-15T11:34:34.708Z,24.71
2016-03-15T11:35:34.883Z,24.85
2016-03-15T11:36:34.869Z,24.95
2016-03-15T11:37:34.873Z,24.93
2016-03-15T11:38:34.891Z,24.95
2016-03-15T11:39:34.925Z,24.96
2016-03-15T11:40:34.897Z,24.95
2016-03-15T11:41:34.914Z,24.91
2016-03-15T11:42:34.917Z,24.78
2016-03-15T11:43:34.935Z,24.85
2016-03-15T11:44:34.922Z,24.99
2016-03-15T11:45:34.941Z,24.96
2016-03-15T11:46:34.943Z,24.88
2016-03-15T11:47:34.946Z,24.9
2016-03-15T11:48:34.949Z,24.98
2016-03-15T11:49:34.967Z,25.09
2016-03-15T11:50:34.970Z,24.99
2016-03-15T11:51:34.988Z,24.99
2016-03-15T11:52:34.975Z,24.99
2016-03-15T11:53:34.994Z,24.9
2016-03-15T11:54:34.996Z,24.98
2016-03-15T11:55:34.998Z,25.03
2016-03-15T11:56:35.018Z,25.05
2016-03-15T11:57:35.020Z,24.99
2016-03-15T11:58:35.022Z,24.9
2016-03-15T11:59:35.025Z,24.87
2016-03-15T12:00:35.044Z,24.84
2016-03-15T12:01:35.047Z,24.83
2016-03-15T12:02:35.049Z,24.77
2016-03-15T12:03:35.052Z,25
2016-03-15T12:04:35.086Z,24.96
2016-03-15T12:05:35.072Z,24.99
2016-03-15T12:06:35.091Z,24.93
2016-03-15T12:07:35.094Z,24.93
2016-03-15T12:08:35.111Z,24.85
2016-03-15T12:09:34.959Z,24.96
2016-03-15T12:10:35.102Z,24.95
2016-03-15T12:11:35.119Z,24.88
2016-03-15T12:12:35.123Z,24.83
2016-03-15T12:13:35.125Z,24.81
2016-03-15T12:14:35.127Z,24.87
2016-03-15T12:15:35.146Z,24.83
2016-03-15T12:16:35.149Z,24.81
2016-03-15T12:17:35.168Z,24.85
2016-03-15T12:18:35.170Z,24.9
2016-03-15T12:19:35.173Z,24.81
2016-03-15T12:20:35.191Z,24.84
2016-03-15T12:21:35.209Z,24.84
2016-03-15T12:22:35.196Z,24.8
2016-03-15T12:23:35.199Z,24.81
2016-03-15T12:24:35.201Z,24.84
2016-03-15T12:25:35.221Z,24.83
2016-03-15T12:26:35.223Z,24.73
2016-03-15T12:27:35.225Z,24.95
2016-03-15T12:28:35.229Z,24.84
2016-03-15T12:29:35.247Z,24.85
2016-03-15T12:30:35.249Z,24.85
2016-03-15T12:31:35.268Z,24.85
2016-03-15T12:32:35.255Z,24.9
2016-03-15T12:33:35.273Z,24.83
2016-03-15T12:34:35.291Z,24.81
2016-03-15T12:35:35.356Z,24.84
2016-03-15T12:36:35.328Z,25.02
2016-03-15T12:37:35.299Z,24.84
2016-03-15T12:38:35.317Z,24.85
2016-03-15T12:39:35.320Z,24.76
2016-03-15T12:40:35.322Z,24.78
2016-03-15T12:41:35.326Z,24.67
2016-03-15T12:42:35.188Z,24.62
2016-03-15T12:43:35.346Z,24.67
2016-03-15T12:44:35.350Z,24.49
2016-03-15T12:45:35.352Z,24.53
2016-03-15T12:46:35.370Z,24.52
2016-03-15T12:47:35.374Z,24.57
2016-03-15T12:48:35.376Z,24.57
2016-03-15T12:49:35.379Z,24.55
2016-03-15T12:50:35.397Z,24.57
2016-03-15T12:51:35.399Z,24.49
2016-03-15T12:52:35.402Z,24.49
2016-03-15T12:53:35.420Z,24.47
2016-03-15T12:54:35.423Z,24.57
2016-03-15T12:55:35.425Z,24.52
2016-03-15T12:56:35.429Z,24.5